Time;durP1;ratioP1;P1;durP2;ratioP2;P2;SDS_P1;SDS_P2;PMS_P1;PMS_P2;Temp;Humidity;BMP_temperature;BMP_pressure;BME280_temperature;BME280_humidity;BME280_pressure;Samples;Min_cycle;Max_cycle;Signal;HPM_P1;HPM_P2
2023/11/09 00:00:01;;;;;;;14.23;6.30;;;;;;;10.40;84.61;100339.84;123073;1100;104355;-75
2023/11/09 00:02:34;;;;;;;13.47;7.10;;;;;;;10.41;84.75;100333.76;123144;1101;104364;-75
2023/11/09 00:05:07;;;;;;;15.83;7.30;;;;;;;10.40;84.60;100330.22;123195;1102;104226;-75
2023/11/09 00:07:39;;;;;;;13.18;6.95;;;;;;;10.40;84.70;100338.09;123227;1099;104293;-75
2023/11/09 00:10:12;;;;;;;15.30;7.10;;;;;;;10.36;84.60;100338.85;123243;1099;104264;-76
2023/11/09 00:12:48;;;;;;;14.95;7.08;;;;;;;10.33;84.77;100336.13;123248;1099;104813;-75
2023/11/09 00:15:20;;;;;;;13.77;7.03;;;;;;;10.31;84.56;100353.48;123210;1099;104387;-76
2023/11/09 00:17:52;;;;;;;15.53;6.90;;;;;;;10.29;84.33;100355.17;123133;1102;104245;-75
2023/11/09 00:20:25;;;;;;;16.47;7.70;;;;;;;10.30;84.59;100353.43;123079;1100;104412;-75
2023/11/09 00:22:56;;;;;;;13.57;7.00;;;;;;;10.30;84.51;100362.21;123175;1102;104242;-76
2023/11/09 00:25:28;;;;;;;16.63;8.57;;;;;;;10.29;84.15;100370.91;123162;1100;104777;-76
2023/11/09 00:27:59;;;;;;;16.30;7.80;;;;;;;10.28;84.17;100362.98;123145;1099;104211;-76
2023/11/09 00:30:32;;;;;;;17.13;8.77;;;;;;;10.26;83.94;100369.05;123222;1099;104341;-76
2023/11/09 00:33:04;;;;;;;15.25;7.80;;;;;;;10.25;84.16;100371.63;123299;1099;104344;-75
2023/11/09 00:35:35;;;;;;;14.77;7.50;;;;;;;10.23;83.67;100363.70;123257;1099;105774;-77
2023/11/09 00:38:08;;;;;;;18.97;8.20;;;;;;;10.22;84.18;100369.81;123215;1100;104332;-75
2023/11/09 00:40:40;;;;;;;16.90;8.15;;;;;;;10.24;83.89;100364.62;123197;1102;104709;-77
2023/11/09 00:43:12;;;;;;;18.23;8.43;;;;;;;10.21;83.69;100370.64;123309;1102;104679;-75
2023/11/09 00:45:44;;;;;;;15.53;8.43;;;;;;;10.21;83.76;100372.37;123246;1102;104358;-76
2023/11/09 00:48:15;;;;;;;19.17;8.10;;;;;;;10.21;83.62;100382.87;123284;1099;104830;-76
2023/11/09 00:50:47;;;;;;;15.00;7.70;;;;;;;10.21;83.76;100370.64;123319;1099;104348;-76
2023/11/09 00:53:19;;;;;;;16.90;8.03;;;;;;;10.24;84.10;100378.61;123338;1099;104293;-75
2023/11/09 00:55:50;;;;;;;17.07;7.97;;;;;;;10.21;83.73;100375.00;123218;1099;104390;-76
2023/11/09 00:58:23;;;;;;;21.60;9.00;;;;;;;10.17;83.65;100368.73;123246;1102;104268;-76
2023/11/09 01:00:54;;;;;;;18.00;8.90;;;;;;;10.16;83.98;100368.68;123245;1102;104709;-76
2023/11/09 01:03:26;;;;;;;18.50;8.67;;;;;;;10.13;84.08;100374.73;123274;1100;104249;-76
2023/11/09 01:06:00;;;;;;;18.60;9.23;;;;;;;10.08;83.52;100371.94;123148;1102;104306;-74
2023/11/09 01:08:32;;;;;;;19.57;8.80;;;;;;;10.06;83.46;100378.84;123195;1099;104316;-74
2023/11/09 01:11:05;;;;;;;20.57;10.03;;;;;;;10.02;83.57;100382.21;123164;1099;104303;-75
2023/11/09 01:13:37;;;;;;;22.00;10.37;;;;;;;9.99;83.46;100375.97;123159;1098;104230;-76
2023/11/09 01:16:09;;;;;;;19.60;9.40;;;;;;;9.98;83.56;100380.30;123140;1102;104303;-77
2023/11/09 01:18:41;;;;;;;20.43;10.00;;;;;;;9.97;84.22;100377.62;123235;1102;104297;-75
2023/11/09 01:21:12;;;;;;;21.37;9.63;;;;;;;9.92;84.27;100384.44;123222;1102;104249;-76
2023/11/09 01:23:45;;;;;;;22.33;10.30;;;;;;;9.88;84.49;100373.84;123170;1102;104248;-75
2023/11/09 01:26:16;;;;;;;21.67;11.10;;;;;;;9.84;84.15;100377.17;123170;1100;104354;-75
2023/11/09 01:28:48;;;;;;;24.63;11.13;;;;;;;9.82;84.00;100380.59;123216;1099;104388;-75
2023/11/09 01:31:21;;;;;;;24.00;11.50;;;;;;;9.80;84.01;100392.73;123258;1099;104304;-75
2023/11/09 01:33:53;;;;;;;22.23;11.30;;;;;;;9.77;83.78;100395.23;123211;1102;104289;-75
2023/11/09 01:36:24;;;;;;;26.33;12.47;;;;;;;9.77;84.29;100395.23;123293;1102;104268;-76
2023/11/09 01:38:56;;;;;;;24.10;12.77;;;;;;;9.77;84.17;100400.48;123264;1102;104347;-77
2023/11/09 01:41:27;;;;;;;27.27;11.57;;;;;;;9.76;83.88;100414.44;123191;1102;104310;-76
2023/11/09 01:44:00;;;;;;;25.80;12.67;;;;;;;9.75;84.37;100407.40;123198;1102;104356;-76
2023/11/09 01:46:32;;;;;;;25.10;13.23;;;;;;;9.73;83.83;100409.97;123419;1100;104364;-75
2023/11/09 01:49:04;;;;;;;24.87;12.37;;;;;;;9.73;83.88;100412.58;123372;1102;104226;-76
2023/11/09 01:51:37;;;;;;;22.97;12.33;;;;;;;9.75;83.86;100417.88;123336;1099;104249;-76
2023/11/09 01:54:09;;;;;;;26.70;13.83;;;;;;;9.74;83.92;100419.62;123261;1099;104766;-77
2023/11/09 01:56:41;;;;;;;25.83;13.80;;;;;;;9.74;84.51;100416.08;123282;1102;104351;-76
2023/11/09 01:59:16;;;;;;;27.30;12.83;;;;;;;9.73;83.86;100424.80;123206;1102;104350;-75
2023/11/09 02:01:52;;;;;;;25.43;13.57;;;;;;;9.71;84.17;100423.00;123275;1102;104325;-76
2023/11/09 02:04:24;;;;;;;25.87;13.03;;;;;;;9.69;84.01;100432.55;123223;1102;104251;-76
2023/11/09 02:06:56;;;;;;;29.13;14.27;;;;;;;9.66;84.07;100445.53;123258;1100;104245;-76
2023/11/09 02:09:28;;;;;;;28.43;14.57;;;;;;;9.63;84.09;100442.79;123231;1099;104387;-75
2023/11/09 02:12:01;;;;;;;27.67;13.77;;;;;;;9.60;84.58;100447.91;123246;1102;104353;-76
2023/11/09 02:14:33;;;;;;;26.83;13.93;;;;;;;9.58;84.07;100452.17;123338;1099;105475;-76
2023/11/09 02:17:06;;;;;;;30.30;14.73;;;;;;;9.57;84.08;100462.59;123297;1099;104256;-76
2023/11/09 02:19:38;;;;;;;25.75;13.10;;;;;;;9.54;84.62;100466.01;123305;1102;104360;-75
2023/11/09 02:22:11;;;;;;;28.23;13.73;;;;;;;9.52;84.18;100460.70;123241;1102;104253;-76
2023/11/09 02:24:47;;;;;;;30.10;14.50;;;;;;;9.51;84.58;100464.16;123376;1102;103171;-76
2023/11/09 02:27:18;;;;;;;29.20;14.60;;;;;;;9.51;84.76;100465.89;123274;1102;104293;-76
2023/11/09 02:29:50;;;;;;;29.23;15.50;;;;;;;9.50;84.87;100471.95;123255;1099;104386;-76
2023/11/09 02:32:22;;;;;;;30.23;15.40;;;;;;;9.50;84.64;100464.09;123356;1099;104252;-76
2023/11/09 02:34:56;;;;;;;34.10;16.20;;;;;;;9.49;84.71;100467.53;123332;1099;104319;-75
2023/11/09 02:37:28;;;;;;;27.90;14.87;;;;;;;9.45;85.04;100477.00;123222;1099;104397;-75
2023/11/09 02:40:01;;;;;;;28.57;14.97;;;;;;;9.43;85.28;100483.92;123248;1100;104229;-75
2023/11/09 02:42:32;;;;;;;33.30;16.40;;;;;;;9.41;84.57;100482.05;123077;1102;104255;-74
2023/11/09 02:45:04;;;;;;;30.63;16.10;;;;;;;9.39;85.70;100491.59;123289;1102;104339;-75
2023/11/09 02:47:36;;;;;;;30.17;16.60;;;;;;;9.35;84.97;100493.20;123179;1102;104357;-75
2023/11/09 02:50:09;;;;;;;34.67;16.83;;;;;;;9.31;85.09;100497.39;123298;1099;104277;-74
2023/11/09 02:52:41;;;;;;;31.17;15.23;;;;;;;9.30;85.82;100498.25;123313;1099;104301;-76
2023/11/09 02:55:14;;;;;;;35.50;17.17;;;;;;;9.29;85.16;100506.92;123437;1102;104181;-76
2023/11/09 02:57:45;;;;;;;37.50;16.03;;;;;;;9.29;85.77;100511.28;123175;1099;104254;-75
2023/11/09 03:00:18;;;;;;;32.50;15.93;;;;;;;9.29;85.33;100509.55;123190;1102;104411;-76
2023/11/09 03:02:50;;;;;;;33.57;16.10;;;;;;;9.30;85.11;100513.96;123215;1102;104277;-76
2023/11/09 03:05:22;;;;;;;31.43;17.47;;;;;;;9.28;85.81;100526.08;123255;1102;104291;-77
2023/11/09 03:07:55;;;;;;;33.03;16.57;;;;;;;9.27;85.86;100526.92;123213;1102;104303;-75
2023/11/09 03:10:26;;;;;;;32.70;16.33;;;;;;;9.27;85.84;100531.25;123276;1099;104284;-77
2023/11/09 03:13:00;;;;;;;30.40;16.57;;;;;;;9.30;86.28;100532.30;123279;1098;104252;-76
2023/11/09 03:15:32;;;;;;;33.70;17.77;;;;;;;9.34;86.39;100531.56;123314;1099;104270;-77
2023/11/09 03:18:03;;;;;;;34.93;16.93;;;;;;;9.36;85.74;100529.02;123269;1102;104287;-75
2023/11/09 03:20:35;;;;;;;32.80;17.40;;;;;;;9.39;86.05;100534.38;123517;1102;104284;-76
2023/11/09 03:23:07;;;;;;;30.90;16.60;;;;;;;9.43;86.07;100535.42;123245;1101;104332;-76
2023/11/09 03:25:39;;;;;;;32.20;17.37;;;;;;;9.45;86.14;100528.50;123167;1102;104300;-76
2023/11/09 03:28:11;;;;;;;32.33;17.63;;;;;;;9.47;86.19;100535.61;123255;1102;104427;-75
2023/11/09 03:30:42;;;;;;;33.67;17.50;;;;;;;9.49;86.14;100538.25;123388;1102;110949;-76
2023/11/09 03:33:14;;;;;;;31.57;17.00;;;;;;;9.49;85.80;100539.17;123488;1099;104281;-76
2023/11/09 03:35:45;;;;;;;32.00;17.45;;;;;;;9.51;86.05;100529.64;123144;1102;104373;-76
2023/11/09 03:38:17;;;;;;;34.77;17.30;;;;;;;9.52;86.14;100535.76;123495;1102;104306;-76
2023/11/09 03:40:49;;;;;;;32.23;18.37;;;;;;;9.51;86.37;100532.25;124130;1102;104351;-76
2023/11/09 03:43:21;;;;;;;33.50;17.07;;;;;;;9.51;85.69;100539.23;123381;1102;104277;-76
2023/11/09 03:45:52;;;;;;;29.13;16.23;;;;;;;9.52;85.66;100541.91;123071;1102;104668;-76
2023/11/09 03:48:24;;;;;;;31.23;16.00;;;;;;;9.55;86.33;100548.98;123222;1102;104280;-76
2023/11/09 03:50:56;;;;;;;33.23;16.10;;;;;;;9.56;86.42;100547.28;123105;1102;107940;-77
2023/11/09 03:53:27;;;;;;;33.03;16.47;;;;;;;9.56;86.06;100539.42;123200;1099;104226;-76
2023/11/09 03:55:59;;;;;;;27.37;15.53;;;;;;;9.59;86.17;100550.02;123179;1099;104325;-76
2023/11/09 03:58:31;;;;;;;30.73;15.87;;;;;;;9.60;86.54;100549.17;123391;1099;104280;-76
2023/11/09 04:01:03;;;;;;;30.43;15.50;;;;;;;9.62;85.95;100553.65;123259;1102;104485;-76
2023/11/09 04:03:36;;;;;;;28.40;15.03;;;;;;;9.63;86.04;100544.97;123298;1102;104239;-76
2023/11/09 04:06:09;;;;;;;27.97;15.23;;;;;;;9.64;86.47;100546.73;123279;1102;104328;-78
2023/11/09 04:08:40;;;;;;;28.90;16.90;;;;;;;9.64;86.63;100554.59;123333;1100;104284;-75
2023/11/09 04:11:12;;;;;;;29.97;15.17;;;;;;;9.65;86.80;100566.88;123264;1099;104287;-76
2023/11/09 04:13:44;;;;;;;29.05;15.70;;;;;;;9.66;86.56;100560.81;123227;1099;104357;-77
2023/11/09 04:16:15;;;;;;;29.00;15.83;;;;;;;9.67;86.39;100564.31;123257;1099;104341;-75
2023/11/09 04:18:47;;;;;;;27.50;14.70;;;;;;;9.68;86.50;100568.73;123334;1102;104287;-76
2023/11/09 04:21:19;;;;;;;26.37;15.17;;;;;;;9.68;86.84;100577.48;123297;1100;104277;-77
2023/11/09 04:23:50;;;;;;;30.07;15.87;;;;;;;9.68;86.45;100577.48;123227;1102;104237;-77
2023/11/09 04:26:22;;;;;;;30.95;16.95;;;;;;;9.70;87.14;100585.40;123177;1102;104344;-76
2023/11/09 04:28:57;;;;;;;28.07;15.90;;;;;;;9.69;86.40;100583.60;123338;1102;104367;-76
2023/11/09 04:31:31;;;;;;;29.97;15.70;;;;;;;9.69;86.66;100589.76;123248;1102;104293;-77
2023/11/09 04:34:08;;;;;;;30.00;15.68;;;;;;;9.68;86.50;100587.96;123329;1099;104252;-79
2023/11/09 04:36:43;;;;;;;32.33;16.60;;;;;;;9.67;86.98;100588.78;123307;1099;104248;-76
2023/11/09 04:39:27;;;;;;;29.50;15.80;;;;;;;9.67;86.50;100594.02;123349;1099;104347;-77
2023/11/09 04:41:59;;;;;;;30.73;15.73;;;;;;;9.66;86.77;100592.25;123220;1102;108307;-76
2023/11/09 04:44:32;;;;;;;28.50;15.67;;;;;;;9.67;86.48;100598.38;123404;1102;104226;-77
2023/11/09 04:47:08;;;;;;;29.93;15.87;;;;;;;9.66;86.40;100600.11;123390;1102;104251;-77
2023/11/09 04:49:45;;;;;;;32.80;15.00;;;;;;;9.66;86.91;100592.25;123251;1102;104245;-77
2023/11/09 04:52:19;;;;;;;27.73;16.40;;;;;;;9.66;86.64;100602.73;123209;1102;119253;-77
2023/11/09 04:54:57;;;;;;;29.63;14.68;;;;;;;9.66;86.37;100599.20;123267;1102;104373;-77
2023/11/09 05:08:48;;;;;;;28.70;15.30;;;;;;;9.67;86.92;100616.72;123183;1102;104475;-77
2023/11/09 05:11:19;;;;;;;28.17;14.93;;;;;;;9.69;86.62;100618.58;123275;1099;104280;-79
2023/11/09 05:13:50;;;;;;;31.33;16.23;;;;;;;9.71;86.46;100621.27;123260;1102;104307;-77
2023/11/09 05:16:22;;;;;;;28.27;14.57;;;;;;;9.69;86.39;100623.82;123278;1099;104283;-77
2023/11/09 05:18:53;;;;;;;27.60;15.10;;;;;;;9.71;86.40;100627.39;123340;1099;104338;-77
2023/11/09 05:21:25;;;;;;;28.17;15.67;;;;;;;9.71;86.22;100634.37;123271;1099;104380;-77
2023/11/09 05:23:57;;;;;;;30.37;16.10;;;;;;;9.71;86.45;100637.88;123393;1102;104299;-78
2023/11/09 05:26:32;;;;;;;30.23;16.33;;;;;;;9.69;86.65;100636.92;123612;1101;104230;-80
2023/11/09 05:29:05;;;;;;;27.55;15.70;;;;;;;9.71;86.73;100636.98;123460;1102;104296;-79
2023/11/09 05:31:37;;;;;;;28.50;14.93;;;;;;;9.72;86.08;100643.99;123705;1099;104290;-80
2023/11/09 05:34:08;;;;;;;29.50;15.70;;;;;;;9.73;86.11;100651.03;123806;1100;104306;-79
2023/11/09 05:36:40;;;;;;;27.47;15.20;;;;;;;9.74;86.14;100644.97;123813;1099;104172;-80
2023/11/09 05:39:14;;;;;;;28.93;14.50;;;;;;;9.75;86.33;100648.48;123867;1099;104354;-79
2023/11/09 05:41:47;;;;;;;27.13;15.17;;;;;;;9.78;86.26;100659.97;123795;1102;104255;-79
2023/11/09 05:44:18;;;;;;;28.73;14.57;;;;;;;9.80;86.56;100662.66;124106;1102;102000;-79
2023/11/09 05:46:50;;;;;;;28.27;14.70;;;;;;;9.83;86.52;100662.78;123995;1102;104339;-79
2023/11/09 05:49:22;;;;;;;27.57;15.70;;;;;;;9.83;85.97;100673.27;123842;1102;104261;-78
2023/11/09 05:51:57;;;;;;;27.70;14.93;;;;;;;9.82;86.29;100680.25;123823;1102;104220;-78
2023/11/09 05:54:29;;;;;;;30.80;15.40;;;;;;;9.84;86.23;100685.55;123678;1099;104240;-77
2023/11/09 05:57:01;;;;;;;26.40;14.57;;;;;;;9.85;86.40;100689.97;123695;1099;104316;-79
2023/11/09 05:59:33;;;;;;;28.30;15.13;;;;;;;9.88;85.76;100688.36;123600;1099;104299;-79
2023/11/09 06:02:07;;;;;;;27.67;15.23;;;;;;;9.89;85.62;100692.79;123689;1099;104252;-79
2023/11/09 06:04:41;;;;;;;27.60;14.28;;;;;;;9.89;85.61;100698.03;124115;1102;104300;-77
2023/11/09 06:07:14;;;;;;;28.40;14.30;;;;;;;9.89;85.61;100702.36;124518;1102;101924;-78
2023/11/09 06:09:45;;;;;;;28.23;15.63;;;;;;;9.92;85.55;100702.48;124246;1102;104261;-78
2023/11/09 06:12:17;;;;;;;26.93;14.43;;;;;;;9.93;85.75;100717.39;124190;1100;104227;-79
2023/11/09 06:14:49;;;;;;;26.45;14.75;;;;;;;9.95;85.17;100720.08;124165;1099;104194;-79
2023/11/09 06:17:21;;;;;;;28.27;15.17;;;;;;;9.95;85.23;100720.96;124400;1102;104252;-78
2023/11/09 06:19:55;;;;;;;27.37;14.73;;;;;;;9.96;85.66;100721.87;124419;1099;102128;-80
2023/11/09 06:22:27;;;;;;;26.15;14.45;;;;;;;9.93;85.01;100725.25;124565;1102;104712;-78
2023/11/09 06:25:02;;;;;;;27.23;14.23;;;;;;;9.91;85.11;100729.55;124370;1102;104197;-78
2023/11/09 06:27:33;;;;;;;29.37;14.28;;;;;;;9.90;85.28;100728.63;124410;1099;104035;-78
2023/11/09 06:30:07;;;;;;;25.87;13.27;;;;;;;9.87;85.14;100741.61;124648;1099;104173;-78
2023/11/09 06:32:40;;;;;;;25.50;14.28;;;;;;;9.84;84.60;100735.34;125091;1099;102843;-76
2023/11/09 06:35:18;;;;;;;27.50;13.35;;;;;;;9.81;84.74;100743.08;124707;1099;103887;-78
2023/11/09 06:37:50;;;;;;;29.37;14.57;;;;;;;9.77;85.01;100751.63;124610;1099;104277;-81
2023/11/09 06:40:26;;;;;;;26.90;14.03;;;;;;;9.74;84.65;100747.17;124643;1099;104344;-78
2023/11/09 06:42:58;;;;;;;24.33;12.77;;;;;;;9.71;84.42;100755.79;124492;1099;104223;-77
2023/11/09 06:45:31;;;;;;;27.20;14.77;;;;;;;9.72;84.90;100754.05;124615;1099;104175;-77
2023/11/09 06:48:04;;;;;;;26.53;14.00;;;;;;;9.67;84.34;100750.34;124802;1099;104185;-79
2023/11/09 06:50:37;;;;;;;24.33;13.80;;;;;;;9.64;84.67;100756.34;124627;1099;102777;-80
2023/11/09 06:53:09;;;;;;;27.90;14.13;;;;;;;9.65;84.09;100763.38;124783;1099;104163;-78
2023/11/09 06:55:43;;;;;;;24.93;13.37;;;;;;;9.67;84.63;100766.95;125398;1099;102424;-78
2023/11/09 06:58:21;;;;;;;25.47;13.90;;;;;;;9.69;84.01;100762.70;126116;1102;101918;-78
2023/11/09 07:01:27;;;;;;;27.33;13.57;;;;;;;9.76;84.31;100771.71;126291;1098;101982;-79
2023/11/09 07:04:01;;;;;;;26.43;12.77;;;;;;;9.86;84.37;100775.61;125994;1099;102853;-78
2023/11/09 07:06:33;;;;;;;23.40;12.70;;;;;;;9.92;84.07;100768.02;126282;1101;102841;-77
2023/11/09 07:09:05;;;;;;;23.60;12.60;;;;;;;9.98;84.12;100773.52;126306;1101;101822;-80
2023/11/09 07:11:42;;;;;;;25.77;13.33;;;;;;;10.03;83.69;100771.98;126194;1102;102615;-79
2023/11/09 07:14:16;;;;;;;25.13;13.03;;;;;;;10.11;83.65;100764.44;124657;1102;104670;-82
2023/11/09 07:16:49;;;;;;;25.08;12.45;;;;;;;10.18;83.69;100773.47;124698;1099;104297;-79
2023/11/09 07:19:21;;;;;;;24.63;12.03;;;;;;;10.24;83.23;100774.62;124751;1102;104245;-78
2023/11/09 07:21:54;;;;;;;25.20;11.60;;;;;;;10.30;82.96;100776.61;124696;1099;104359;-80
2023/11/09 07:24:31;;;;;;;23.90;12.07;;;;;;;10.33;82.45;100783.72;124651;1102;104249;-79
2023/11/09 07:27:07;;;;;;;24.13;12.37;;;;;;;10.34;82.19;100781.16;124641;1099;103791;-80
2023/11/09 07:29:39;;;;;;;22.47;11.37;;;;;;;10.39;82.28;100779.64;125958;1099;102180;-77
2023/11/09 07:32:15;;;;;;;22.13;11.17;;;;;;;10.45;82.19;100796.45;124693;1102;104778;-76
2023/11/09 07:34:48;;;;;;;22.07;11.13;;;;;;;10.49;81.78;100795.77;124667;1099;104179;-77
2023/11/09 07:37:20;;;;;;;24.95;11.55;;;;;;;10.54;81.95;100786.34;124556;1100;104182;-77
2023/11/09 07:39:54;;;;;;;23.50;11.87;;;;;;;10.60;81.48;100803.22;124756;1102;104210;-76
2023/11/09 07:42:27;;;;;;;22.27;11.48;;;;;;;10.66;81.16;100799.95;124397;1099;104165;-76
2023/11/09 07:45:03;;;;;;;22.55;12.20;;;;;;;10.68;80.59;100805.27;124586;1099;103976;-77
2023/11/09 07:47:59;;;;;;;20.67;11.33;;;;;;;10.72;80.92;100792.33;124415;1099;104236;-78
2023/11/09 07:50:36;;;;;;;22.67;11.10;;;;;;;10.80;80.67;100790.00;124471;1098;104623;-78
2023/11/09 07:53:11;;;;;;;20.10;10.60;;;;;;;10.86;80.12;100786.70;124657;1099;104191;-79
2023/11/09 07:55:45;;;;;;;19.65;9.45;;;;;;;10.92;80.55;100800.07;124711;1099;104287;-77
2023/11/09 07:58:17;;;;;;;22.93;10.03;;;;;;;11.00;80.38;100797.75;124718;1099;104163;-77
2023/11/09 08:01:06;;;;;;;21.63;9.83;;;;;;;11.08;80.06;100807.72;126295;1098;102800;-78
2023/11/09 08:03:37;;;;;;;17.67;8.90;;;;;;;11.18;79.83;100810.70;126118;1099;102525;-79
2023/11/09 08:06:09;;;;;;;19.43;8.93;;;;;;;11.21;78.20;100797.69;124929;1099;119795;-78
2023/11/09 08:08:42;;;;;;;18.47;8.83;;;;;;;11.24;78.75;100803.05;124775;1099;104188;-77
2023/11/09 08:11:19;;;;;;;18.13;8.17;;;;;;;11.32;77.87;100804.23;124592;1102;104189;-79
2023/11/09 08:13:51;;;;;;;17.90;8.30;;;;;;;11.30;76.98;100798.92;124780;1101;102789;-77
2023/11/09 08:16:22;;;;;;;14.63;8.00;;;;;;;11.37;77.89;100805.29;124645;1099;104189;-76
2023/11/09 08:18:55;;;;;;;19.13;8.67;;;;;;;11.48;77.02;100813.56;124715;1099;104156;-76
2023/11/09 08:21:29;;;;;;;16.07;8.10;;;;;;;11.48;76.89;100814.48;124791;1099;102595;-77
2023/11/09 08:24:02;;;;;;;17.40;8.27;;;;;;;11.59;77.71;100816.59;124813;1099;102580;-77
2023/11/09 08:26:37;;;;;;;16.57;8.10;;;;;;;11.75;77.21;100828.55;124713;1099;113113;-81
2023/11/09 08:29:10;;;;;;;16.73;7.53;;;;;;;11.80;75.75;100834.89;124991;1099;104230;-77
2023/11/09 08:31:44;;;;;;;16.32;8.05;;;;;;;11.78;75.54;100833.92;124573;1102;104169;-77
2023/11/09 08:34:17;;;;;;;18.30;7.47;;;;;;;11.82;75.46;100841.97;125163;1102;102307;-78
2023/11/09 08:36:55;;;;;;;20.27;7.67;;;;;;;11.84;74.75;100840.32;124561;1099;102634;-79
2023/11/09 08:39:34;;;;;;;16.83;7.43;;;;;;;11.84;73.74;100840.32;124603;1102;104246;-78
2023/11/09 08:42:17;;;;;;;16.00;7.70;;;;;;;11.89;74.58;100837.86;124581;1099;104224;-77
2023/11/09 08:44:51;;;;;;;19.75;7.05;;;;;;;11.95;73.62;100840.73;124528;1099;103061;-75
2023/11/09 08:47:22;;;;;;;15.27;7.33;;;;;;;11.96;72.94;100834.62;124592;1099;102570;-80
2023/11/09 08:49:58;;;;;;;13.67;6.63;;;;;;;12.01;73.30;100829.52;124679;1102;104230;-78
2023/11/09 08:52:33;;;;;;;14.67;7.10;;;;;;;12.09;72.56;100829.78;124731;1099;104374;-78
2023/11/09 08:55:08;;;;;;;11.43;5.77;;;;;;;12.09;72.03;100835.05;125141;1099;104121;-76
2023/11/09 08:57:41;;;;;;;13.57;6.17;;;;;;;12.13;72.13;100832.58;125677;1099;104331;-74
2023/11/09 09:00:30;;;;;;;14.47;6.97;;;;;;;12.19;71.00;100832.79;125710;1099;102909;-78
2023/11/09 09:03:19;;;;;;;14.27;6.33;;;;;;;12.18;70.55;100830.99;125828;1099;104220;-80
2023/11/09 09:05:52;;;;;;;15.00;6.30;;;;;;;12.21;70.99;100824.95;125071;1100;104246;-77
2023/11/09 09:08:38;;;;;;;12.47;5.70;;;;;;;12.29;71.06;100823.47;124679;1099;104179;-78
2023/11/09 09:11:11;;;;;;;18.00;6.80;;;;;;;12.42;70.76;100827.43;124707;1099;104208;-76
2023/11/09 09:13:50;;;;;;;11.63;5.73;;;;;;;12.51;70.17;100826.82;124466;1099;104392;-77
2023/11/09 09:16:22;;;;;;;13.90;5.50;;;;;;;12.61;70.76;100831.55;124393;1102;103326;-77
2023/11/09 09:18:56;;;;;;;13.27;5.63;;;;;;;12.71;70.67;100835.38;124643;1099;104297;-76
2023/11/09 09:21:27;;;;;;;;;;;;;;;12.82;69.67;100831.34;124560;1099;104242;-77
2023/11/09 09:23:58;;;;;;;9.33;4.43;;;;;;;12.92;69.70;100838.69;124466;1102;104335;-77
2023/11/09 09:26:33;;;;;;;9.40;3.90;;;;;;;13.01;67.84;100838.10;124526;1099;103064;-79
2023/11/09 09:29:18;;;;;;;8.73;3.80;;;;;;;13.03;65.39;100843.42;124547;1099;102181;-79
2023/11/09 09:31:52;;;;;;;8.43;4.00;;;;;;;13.02;66.57;100834.59;124630;1102;103355;-80
2023/11/09 09:34:31;;;;;;;8.90;3.53;;;;;;;12.95;66.18;100841.42;125177;1099;104195;-79
2023/11/09 09:37:04;;;;;;;8.40;3.83;;;;;;;12.87;65.42;100835.03;125347;1102;101944;-83
2023/11/09 09:39:39;;;;;;;5.80;3.30;;;;;;;12.89;64.98;100838.59;124624;1098;104225;-78
2023/11/09 09:42:15;;;;;;;6.97;3.50;;;;;;;12.97;65.08;100840.59;124617;1099;104172;-84
2023/11/09 09:44:53;;;;;;;7.53;3.53;;;;;;;13.01;65.25;100827.56;124868;1099;101902;-81
2023/11/09 09:47:30;;;;;;;7.90;3.27;;;;;;;13.03;64.37;100819.70;124726;1099;104233;-79
2023/11/09 09:50:04;;;;;;;7.23;3.10;;;;;;;13.09;63.55;100833.07;124580;1099;104275;-78
2023/11/09 09:52:38;;;;;;;8.37;3.40;;;;;;;13.12;63.17;100830.53;124815;1102;104159;-80
2023/11/09 09:55:11;;;;;;;7.20;3.17;;;;;;;13.18;63.88;100824.53;124628;1102;102563;-78
2023/11/09 09:57:44;;;;;;;7.30;2.73;;;;;;;13.22;63.06;100827.31;124650;1099;102236;-75
2023/11/09 10:00:25;;;;;;;6.33;2.90;;;;;;;13.22;62.71;100823.79;126311;1098;101379;-77
2023/11/09 10:02:59;;;;;;;6.10;3.20;;;;;;;13.22;61.19;100827.31;126324;1098;102252;-76
2023/11/09 10:05:38;;;;;;;8.20;3.47;;;;;;;13.19;61.31;100821.06;125022;1099;104265;-76
2023/11/09 10:08:12;;;;;;;7.00;2.90;;;;;;;13.14;60.06;100823.55;124537;1099;101942;-77
2023/11/09 10:10:47;;;;;;;8.43;3.07;;;;;;;13.17;61.67;100817.50;124338;1099;104352;-77
2023/11/09 10:13:25;;;;;;;6.33;3.17;;;;;;;13.26;61.45;100817.74;125977;1099;102860;-77
2023/11/09 10:16:02;;;;;;;5.43;2.93;;;;;;;13.33;60.83;100829.38;124505;1099;104130;-78
2023/11/09 10:18:35;;;;;;;5.30;3.07;;;;;;;13.31;61.15;100827.58;124283;1099;104204;-74
2023/11/09 10:21:12;;;;;;;7.20;3.10;;;;;;;13.33;59.79;100818.84;124317;1102;104176;-78
2023/11/09 10:23:52;;;;;;;5.03;3.20;;;;;;;13.34;58.93;100837.37;124174;1099;104799;-75
2023/11/09 10:26:35;;;;;;;5.27;3.10;;;;;;;13.33;59.36;100837.29;124206;1099;104207;-76
2023/11/09 10:29:07;;;;;;;6.23;3.00;;;;;;;13.34;59.41;100820.64;124423;1099;120611;-77
2023/11/09 10:31:39;;;;;;;4.87;2.60;;;;;;;13.42;59.43;100821.78;124747;1102;104213;-80
2023/11/09 10:34:12;;;;;;;7.40;3.23;;;;;;;13.49;59.65;100826.36;124799;1099;104168;-79
2023/11/09 10:36:45;;;;;;;7.63;2.97;;;;;;;13.53;58.09;100822.98;124858;1101;103101;-78
2023/11/09 10:39:22;;;;;;;5.33;2.73;;;;;;;13.54;59.37;100831.77;124639;1102;104233;-78
2023/11/09 10:41:59;;;;;;;6.10;2.83;;;;;;;13.57;57.80;100829.22;124676;1099;104165;-76
2023/11/09 10:44:32;;;;;;;5.00;2.60;;;;;;;13.44;58.01;100830.62;124478;1102;104316;-78
2023/11/09 10:47:05;;;;;;;6.33;2.93;;;;;;;13.37;57.31;100841.81;124689;1099;102229;-78
2023/11/09 10:49:43;;;;;;;8.70;2.90;;;;;;;13.36;57.68;100837.41;124604;1102;110789;-76
2023/11/09 10:52:22;;;;;;;5.90;2.70;;;;;;;13.28;56.75;100839.78;124466;1099;104134;-78
2023/11/09 10:54:56;;;;;;;6.03;3.00;;;;;;;13.29;56.46;100836.28;124562;1102;103094;-76
2023/11/09 10:57:31;;;;;;;5.50;2.55;;;;;;;13.28;57.12;100835.40;124438;1099;103166;-78
2023/11/09 11:00:11;;;;;;;4.83;2.53;;;;;;;13.22;56.80;100845.75;126128;1098;102674;-78
2023/11/09 11:02:55;;;;;;;3.93;2.33;;;;;;;13.21;56.16;100840.44;126199;1098;102551;-78
2023/11/09 11:05:30;;;;;;;4.10;2.63;;;;;;;13.16;56.46;100836.78;126058;1102;101905;-79
2023/11/09 11:08:06;;;;;;;4.00;2.20;;;;;;;13.13;56.63;100843.75;126121;1099;102483;-78
2023/11/09 11:10:42;;;;;;;5.87;2.27;;;;;;;13.16;55.85;100837.66;126032;1101;102904;-78
2023/11/09 11:13:19;;;;;;;5.97;2.67;;;;;;;13.18;55.27;100833.32;126050;1099;101906;-76
2023/11/09 11:16:28;;;;;;;5.13;2.17;;;;;;;13.24;55.85;100837.89;125953;1099;102139;-76
2023/11/09 11:19:19;;;;;;;8.37;2.47;;;;;;;13.30;54.79;100841.59;125989;1099;102678;-75
2023/11/09 11:22:22;;;;;;;3.53;1.83;;;;;;;13.31;54.55;100832.86;126154;1098;101967;-76
2023/11/09 11:25:28;;;;;;;7.40;2.30;;;;;;;13.37;54.06;100854.99;126074;1102;103066;-75
2023/11/09 11:28:02;;;;;;;5.87;2.53;;;;;;;13.31;54.12;100847.78;126017;1099;102473;-74
2023/11/09 11:30:38;;;;;;;5.10;2.27;;;;;;;13.27;53.98;100852.05;126019;1099;113192;-76
2023/11/09 11:33:13;;;;;;;4.87;2.20;;;;;;;13.25;53.31;100843.21;126093;1101;102589;-78
2023/11/09 11:35:55;;;;;;;5.27;2.60;;;;;;;13.26;53.97;100842.38;126185;1099;102094;-76
2023/11/09 11:38:29;;;;;;;4.60;2.20;;;;;;;13.25;53.25;100851.12;126018;1101;102040;-75
2023/11/09 11:41:18;;;;;;;4.78;2.15;;;;;;;13.27;53.50;100846.78;126068;1099;101838;-77
2023/11/09 11:43:54;;;;;;;5.43;2.37;;;;;;;13.29;54.39;100842.47;126080;1099;101929;-77